sensor_id;sensor_type;location;lat;lon;timestamp;P1;durP1;ratioP1;P2;durP2;ratioP2
9467;SDS011;4772;52.382;9.752;2022-10-16T00:00:38;2.57;;;1.20;;
9467;SDS011;4772;52.382;9.752;2022-10-16T00:03:05;1.53;;;1.20;;
9467;SDS011;4772;52.382;9.752;2022-10-16T00:05:31;0.80;;;0.80;;
9467;SDS011;4772;52.382;9.752;2022-10-16T00:07:57;2.17;;;1.20;;
9467;SDS011;4772;52.382;9.752;2022-10-16T00:10:36;2.13;;;1.30;;
9467;SDS011;4772;52.382;9.752;2022-10-16T00:13:05;1.97;;;1.10;;
9467;SDS011;4772;52.382;9.752;2022-10-16T00:15:46;1.63;;;1.00;;
9467;SDS011;4772;52.382;9.752;2022-10-16T00:18:12;1.27;;;1.17;;
9467;SDS011;4772;52.382;9.752;2022-10-16T00:20:39;2.77;;;1.17;;
9467;SDS011;4772;52.382;9.752;2022-10-16T00:23:05;2.60;;;1.03;;
9467;SDS011;4772;52.382;9.752;2022-10-16T00:25:31;1.13;;;1.03;;
9467;SDS011;4772;52.382;9.752;2022-10-16T00:27:59;1.27;;;1.00;;
9467;SDS011;4772;52.382;9.752;2022-10-16T00:30:25;1.77;;;1.10;;
9467;SDS011;4772;52.382;9.752;2022-10-16T00:32:52;1.50;;;1.20;;
9467;SDS011;4772;52.382;9.752;2022-10-16T00:35:18;3.40;;;1.13;;
9467;SDS011;4772;52.382;9.752;2022-10-16T00:37:44;2.17;;;1.10;;
9467;SDS011;4772;52.382;9.752;2022-10-16T00:40:10;2.20;;;1.10;;
9467;SDS011;4772;52.382;9.752;2022-10-16T00:42:36;6.47;;;1.37;;
9467;SDS011;4772;52.382;9.752;2022-10-16T00:45:03;1.30;;;0.93;;
9467;SDS011;4772;52.382;9.752;2022-10-16T00:47:30;2.30;;;1.07;;
9467;SDS011;4772;52.382;9.752;2022-10-16T00:50:13;1.77;;;1.20;;
9467;SDS011;4772;52.382;9.752;2022-10-16T00:52:43;2.00;;;1.20;;
9467;SDS011;4772;52.382;9.752;2022-10-16T00:55:10;1.27;;;1.10;;
9467;SDS011;4772;52.382;9.752;2022-10-16T00:57:36;2.90;;;1.20;;
9467;SDS011;4772;52.382;9.752;2022-10-16T01:00:04;2.90;;;1.00;;
9467;SDS011;4772;52.382;9.752;2022-10-16T01:02:30;1.43;;;1.30;;
9467;SDS011;4772;52.382;9.752;2022-10-16T01:04:56;2.43;;;1.23;;
9467;SDS011;4772;52.382;9.752;2022-10-16T01:08:04;1.43;;;1.23;;
9467;SDS011;4772;52.382;9.752;2022-10-16T01:15:35;4.20;;;1.33;;
9467;SDS011;4772;52.382;9.752;2022-10-16T01:20:33;2.27;;;1.40;;
9467;SDS011;4772;52.382;9.752;2022-10-16T01:23:18;3.97;;;1.50;;
9467;SDS011;4772;52.382;9.752;2022-10-16T01:28:34;2.20;;;1.40;;
9467;SDS011;4772;52.382;9.752;2022-10-16T01:31:02;2.50;;;1.50;;
9467;SDS011;4772;52.382;9.752;2022-10-16T01:33:30;5.93;;;1.70;;
9467;SDS011;4772;52.382;9.752;2022-10-16T01:36:00;2.77;;;1.93;;
9467;SDS011;4772;52.382;9.752;2022-10-16T01:38:33;5.50;;;1.77;;
9467;SDS011;4772;52.382;9.752;2022-10-16T01:41:01;3.70;;;1.60;;
9467;SDS011;4772;52.382;9.752;2022-10-16T01:43:36;4.03;;;1.53;;
9467;SDS011;4772;52.382;9.752;2022-10-16T01:46:04;2.57;;;1.70;;
9467;SDS011;4772;52.382;9.752;2022-10-16T01:48:31;4.60;;;2.20;;
9467;SDS011;4772;52.382;9.752;2022-10-16T01:51:00;4.83;;;1.80;;
9467;SDS011;4772;52.382;9.752;2022-10-16T01:53:27;3.90;;;1.53;;
9467;SDS011;4772;52.382;9.752;2022-10-16T01:55:53;2.40;;;1.93;;
9467;SDS011;4772;52.382;9.752;2022-10-16T01:58:21;4.20;;;1.90;;
9467;SDS011;4772;52.382;9.752;2022-10-16T02:00:47;4.77;;;1.87;;
9467;SDS011;4772;52.382;9.752;2022-10-16T02:03:14;3.53;;;1.40;;
9467;SDS011;4772;52.382;9.752;2022-10-16T02:05:54;3.60;;;1.90;;
9467;SDS011;4772;52.382;9.752;2022-10-16T02:08:21;3.90;;;1.80;;
9467;SDS011;4772;52.382;9.752;2022-10-16T02:10:48;2.57;;;1.83;;
9467;SDS011;4772;52.382;9.752;2022-10-16T02:15:40;5.40;;;2.07;;
9467;SDS011;4772;52.382;9.752;2022-10-16T02:18:06;4.37;;;1.90;;
9467;SDS011;4772;52.382;9.752;2022-10-16T02:20:34;2.97;;;1.87;;
9467;SDS011;4772;52.382;9.752;2022-10-16T02:23:02;4.37;;;2.10;;
9467;SDS011;4772;52.382;9.752;2022-10-16T02:25:32;7.57;;;2.13;;
9467;SDS011;4772;52.382;9.752;2022-10-16T02:28:05;5.03;;;1.63;;
9467;SDS011;4772;52.382;9.752;2022-10-16T02:32:58;4.87;;;1.80;;
9467;SDS011;4772;52.382;9.752;2022-10-16T02:35:26;3.83;;;1.90;;
9467;SDS011;4772;52.382;9.752;2022-10-16T02:37:53;2.30;;;1.53;;
9467;SDS011;4772;52.382;9.752;2022-10-16T02:40:20;3.80;;;1.53;;
9467;SDS011;4772;52.382;9.752;2022-10-16T02:42:49;2.90;;;1.63;;
9467;SDS011;4772;52.382;9.752;2022-10-16T02:45:15;3.73;;;1.50;;
9467;SDS011;4772;52.382;9.752;2022-10-16T02:47:41;1.67;;;1.40;;
9467;SDS011;4772;52.382;9.752;2022-10-16T02:50:07;4.17;;;1.60;;
9467;SDS011;4772;52.382;9.752;2022-10-16T02:52:33;4.97;;;2.10;;
9467;SDS011;4772;52.382;9.752;2022-10-16T02:54:59;5.10;;;2.23;;
9467;SDS011;4772;52.382;9.752;2022-10-16T02:57:25;3.70;;;1.70;;
9467;SDS011;4772;52.382;9.752;2022-10-16T02:59:51;2.27;;;1.63;;
9467;SDS011;4772;52.382;9.752;2022-10-16T03:02:17;3.97;;;2.30;;
9467;SDS011;4772;52.382;9.752;2022-10-16T03:04:43;3.47;;;1.77;;
9467;SDS011;4772;52.382;9.752;2022-10-16T03:07:09;5.57;;;2.20;;
9467;SDS011;4772;52.382;9.752;2022-10-16T03:09:35;4.93;;;2.13;;
9467;SDS011;4772;52.382;9.752;2022-10-16T03:12:01;4.00;;;2.13;;
9467;SDS011;4772;52.382;9.752;2022-10-16T03:14:27;3.40;;;2.03;;
9467;SDS011;4772;52.382;9.752;2022-10-16T03:16:53;2.50;;;2.20;;
9467;SDS011;4772;52.382;9.752;2022-10-16T03:19:19;3.77;;;2.50;;
9467;SDS011;4772;52.382;9.752;2022-10-16T03:21:45;4.60;;;2.27;;
9467;SDS011;4772;52.382;9.752;2022-10-16T03:24:11;5.83;;;2.43;;
9467;SDS011;4772;52.382;9.752;2022-10-16T03:26:37;3.43;;;2.27;;
9467;SDS011;4772;52.382;9.752;2022-10-16T03:29:03;6.20;;;2.60;;
9467;SDS011;4772;52.382;9.752;2022-10-16T03:31:30;3.53;;;2.17;;
9467;SDS011;4772;52.382;9.752;2022-10-16T03:33:56;3.23;;;2.00;;
9467;SDS011;4772;52.382;9.752;2022-10-16T03:36:22;6.50;;;2.33;;
9467;SDS011;4772;52.382;9.752;2022-10-16T03:38:48;4.20;;;2.27;;
9467;SDS011;4772;52.382;9.752;2022-10-16T03:41:14;7.40;;;2.33;;
9467;SDS011;4772;52.382;9.752;2022-10-16T03:43:40;3.90;;;2.30;;
9467;SDS011;4772;52.382;9.752;2022-10-16T03:46:06;3.73;;;2.37;;
9467;SDS011;4772;52.382;9.752;2022-10-16T03:48:32;2.83;;;2.10;;
9467;SDS011;4772;52.382;9.752;2022-10-16T03:50:58;4.33;;;2.33;;
9467;SDS011;4772;52.382;9.752;2022-10-16T03:53:24;5.33;;;2.43;;
9467;SDS011;4772;52.382;9.752;2022-10-16T03:55:50;5.50;;;2.50;;
9467;SDS011;4772;52.382;9.752;2022-10-16T03:58:16;7.03;;;2.57;;
9467;SDS011;4772;52.382;9.752;2022-10-16T04:00:43;3.67;;;2.30;;
9467;SDS011;4772;52.382;9.752;2022-10-16T04:03:09;6.03;;;2.50;;
9467;SDS011;4772;52.382;9.752;2022-10-16T04:05:35;5.67;;;2.50;;
9467;SDS011;4772;52.382;9.752;2022-10-16T04:08:02;6.20;;;2.00;;
9467;SDS011;4772;52.382;9.752;2022-10-16T04:10:28;3.63;;;2.30;;
9467;SDS011;4772;52.382;9.752;2022-10-16T04:12:53;4.97;;;2.10;;
9467;SDS011;4772;52.382;9.752;2022-10-16T04:15:21;4.00;;;2.00;;
9467;SDS011;4772;52.382;9.752;2022-10-16T04:17:47;3.63;;;2.50;;
9467;SDS011;4772;52.382;9.752;2022-10-16T04:20:13;6.37;;;2.47;;
9467;SDS011;4772;52.382;9.752;2022-10-16T04:22:39;7.40;;;2.50;;
9467;SDS011;4772;52.382;9.752;2022-10-16T04:25:05;3.23;;;2.20;;
9467;SDS011;4772;52.382;9.752;2022-10-16T04:27:31;4.37;;;2.50;;
9467;SDS011;4772;52.382;9.752;2022-10-16T04:29:57;6.70;;;2.30;;
9467;SDS011;4772;52.382;9.752;2022-10-16T04:32:23;4.67;;;2.30;;
9467;SDS011;4772;52.382;9.752;2022-10-16T04:34:49;4.10;;;2.50;;
9467;SDS011;4772;52.382;9.752;2022-10-16T04:37:15;5.67;;;2.60;;
9467;SDS011;4772;52.382;9.752;2022-10-16T04:39:41;3.90;;;2.57;;
9467;SDS011;4772;52.382;9.752;2022-10-16T04:42:07;2.63;;;2.27;;
9467;SDS011;4772;52.382;9.752;2022-10-16T04:44:33;5.80;;;2.80;;
9467;SDS011;4772;52.382;9.752;2022-10-16T04:47:00;8.87;;;2.93;;
9467;SDS011;4772;52.382;9.752;2022-10-16T04:49:26;5.97;;;2.70;;
9467;SDS011;4772;52.382;9.752;2022-10-16T04:51:52;4.57;;;2.90;;
9467;SDS011;4772;52.382;9.752;2022-10-16T04:54:18;3.77;;;2.87;;
9467;SDS011;4772;52.382;9.752;2022-10-16T04:56:44;5.53;;;3.17;;
9467;SDS011;4772;52.382;9.752;2022-10-16T04:59:15;5.07;;;2.80;;
9467;SDS011;4772;52.382;9.752;2022-10-16T05:01:41;4.30;;;2.53;;
9467;SDS011;4772;52.382;9.752;2022-10-16T05:04:07;5.80;;;2.80;;
9467;SDS011;4772;52.382;9.752;2022-10-16T05:06:33;3.77;;;2.67;;
9467;SDS011;4772;52.382;9.752;2022-10-16T05:08:59;3.93;;;3.30;;
9467;SDS011;4772;52.382;9.752;2022-10-16T05:11:25;5.73;;;2.60;;
9467;SDS011;4772;52.382;9.752;2022-10-16T05:13:51;7.03;;;2.63;;
9467;SDS011;4772;52.382;9.752;2022-10-16T05:16:17;7.97;;;2.97;;
9467;SDS011;4772;52.382;9.752;2022-10-16T05:18:43;4.50;;;2.63;;
9467;SDS011;4772;52.382;9.752;2022-10-16T05:21:09;8.27;;;2.70;;
9467;SDS011;4772;52.382;9.752;2022-10-16T05:23:35;6.50;;;2.97;;
9467;SDS011;4772;52.382;9.752;2022-10-16T05:26:01;4.60;;;2.73;;
9467;SDS011;4772;52.382;9.752;2022-10-16T05:28:27;4.47;;;2.67;;
9467;SDS011;4772;52.382;9.752;2022-10-16T05:30:54;3.07;;;2.80;;
9467;SDS011;4772;52.382;9.752;2022-10-16T05:33:20;4.37;;;2.67;;
9467;SDS011;4772;52.382;9.752;2022-10-16T05:35:47;4.70;;;3.00;;
9467;SDS011;4772;52.382;9.752;2022-10-16T05:38:13;5.23;;;2.80;;
9467;SDS011;4772;52.382;9.752;2022-10-16T05:40:39;4.30;;;2.83;;
9467;SDS011;4772;52.382;9.752;2022-10-16T05:43:05;5.30;;;3.20;;
9467;SDS011;4772;52.382;9.752;2022-10-16T05:45:31;4.33;;;2.73;;
9467;SDS011;4772;52.382;9.752;2022-10-16T05:47:56;3.10;;;2.80;;
9467;SDS011;4772;52.382;9.752;2022-10-16T05:50:22;3.23;;;2.93;;
9467;SDS011;4772;52.382;9.752;2022-10-16T05:52:48;5.17;;;2.87;;
9467;SDS011;4772;52.382;9.752;2022-10-16T05:55:14;5.67;;;3.27;;
9467;SDS011;4772;52.382;9.752;2022-10-16T05:57:40;4.27;;;2.87;;
9467;SDS011;4772;52.382;9.752;2022-10-16T06:00:06;3.53;;;2.77;;
9467;SDS011;4772;52.382;9.752;2022-10-16T06:02:33;3.70;;;2.67;;
9467;SDS011;4772;52.382;9.752;2022-10-16T06:04:58;3.57;;;2.80;;
9467;SDS011;4772;52.382;9.752;2022-10-16T06:07:25;4.97;;;3.20;;
9467;SDS011;4772;52.382;9.752;2022-10-16T06:09:51;4.33;;;3.10;;
9467;SDS011;4772;52.382;9.752;2022-10-16T06:12:18;3.77;;;2.80;;
9467;SDS011;4772;52.382;9.752;2022-10-16T06:14:44;6.10;;;2.57;;
9467;SDS011;4772;52.382;9.752;2022-10-16T06:17:11;6.57;;;2.50;;
9467;SDS011;4772;52.382;9.752;2022-10-16T06:19:37;3.17;;;2.70;;
9467;SDS011;4772;52.382;9.752;2022-10-16T06:22:03;2.30;;;1.80;;
9467;SDS011;4772;52.382;9.752;2022-10-16T06:24:29;3.00;;;2.10;;
9467;SDS011;4772;52.382;9.752;2022-10-16T06:26:55;3.53;;;2.00;;
9467;SDS011;4772;52.382;9.752;2022-10-16T06:29:21;2.30;;;1.90;;
9467;SDS011;4772;52.382;9.752;2022-10-16T06:31:47;3.57;;;1.90;;
9467;SDS011;4772;52.382;9.752;2022-10-16T06:34:13;3.57;;;2.00;;
9467;SDS011;4772;52.382;9.752;2022-10-16T06:36:40;4.20;;;2.53;;
9467;SDS011;4772;52.382;9.752;2022-10-16T06:39:06;2.20;;;2.00;;
9467;SDS011;4772;52.382;9.752;2022-10-16T06:41:32;3.77;;;2.80;;
9467;SDS011;4772;52.382;9.752;2022-10-16T06:43:59;4.77;;;2.33;;
9467;SDS011;4772;52.382;9.752;2022-10-16T06:46:25;2.97;;;2.60;;
9467;SDS011;4772;52.382;9.752;2022-10-16T06:48:52;4.23;;;1.80;;
9467;SDS011;4772;52.382;9.752;2022-10-16T06:51:19;4.03;;;1.83;;
9467;SDS011;4772;52.382;9.752;2022-10-16T06:53:46;2.67;;;1.50;;
9467;SDS011;4772;52.382;9.752;2022-10-16T06:56:17;2.77;;;1.83;;
9467;SDS011;4772;52.382;9.752;2022-10-16T06:58:44;5.07;;;1.70;;
9467;SDS011;4772;52.382;9.752;2022-10-16T07:01:11;3.10;;;1.80;;
9467;SDS011;4772;52.382;9.752;2022-10-16T07:03:37;2.03;;;1.70;;
9467;SDS011;4772;52.382;9.752;2022-10-16T07:06:04;3.07;;;2.00;;
9467;SDS011;4772;52.382;9.752;2022-10-16T07:08:31;2.67;;;1.77;;
9467;SDS011;4772;52.382;9.752;2022-10-16T07:11:04;3.40;;;2.00;;
9467;SDS011;4772;52.382;9.752;2022-10-16T07:13:34;1.80;;;1.70;;
9467;SDS011;4772;52.382;9.752;2022-10-16T07:16:04;3.63;;;1.67;;
9467;SDS011;4772;52.382;9.752;2022-10-16T07:18:31;3.20;;;1.67;;
9467;SDS011;4772;52.382;9.752;2022-10-16T07:21:06;1.90;;;1.67;;
9467;SDS011;4772;52.382;9.752;2022-10-16T07:23:32;3.83;;;1.60;;
9467;SDS011;4772;52.382;9.752;2022-10-16T07:25:58;3.10;;;1.50;;
9467;SDS011;4772;52.382;9.752;2022-10-16T07:28:25;5.87;;;1.70;;
9467;SDS011;4772;52.382;9.752;2022-10-16T07:30:51;3.47;;;1.50;;
9467;SDS011;4772;52.382;9.752;2022-10-16T07:33:17;1.73;;;1.33;;
9467;SDS011;4772;52.382;9.752;2022-10-16T07:35:50;1.53;;;1.30;;
9467;SDS011;4772;52.382;9.752;2022-10-16T07:38:16;1.83;;;1.57;;
9467;SDS011;4772;52.382;9.752;2022-10-16T07:40:42;3.07;;;1.30;;
9467;SDS011;4772;52.382;9.752;2022-10-16T07:43:08;1.67;;;1.40;;
9467;SDS011;4772;52.382;9.752;2022-10-16T07:45:34;1.83;;;1.30;;
9467;SDS011;4772;52.382;9.752;2022-10-16T07:48:00;2.60;;;1.17;;
9467;SDS011;4772;52.382;9.752;2022-10-16T07:50:26;1.23;;;0.97;;
9467;SDS011;4772;52.382;9.752;2022-10-16T07:52:52;2.70;;;1.20;;
9467;SDS011;4772;52.382;9.752;2022-10-16T07:55:18;1.33;;;1.13;;
9467;SDS011;4772;52.382;9.752;2022-10-16T07:57:44;4.33;;;1.30;;
9467;SDS011;4772;52.382;9.752;2022-10-16T08:00:10;1.92;;;1.17;;
9467;SDS011;4772;52.382;9.752;2022-10-16T08:02:40;3.03;;;1.20;;
9467;SDS011;4772;52.382;9.752;2022-10-16T08:05:06;3.20;;;1.13;;
9467;SDS011;4772;52.382;9.752;2022-10-16T08:07:32;1.30;;;0.90;;
9467;SDS011;4772;52.382;9.752;2022-10-16T08:09:58;2.03;;;1.00;;
9467;SDS011;4772;52.382;9.752;2022-10-16T08:12:27;1.57;;;0.90;;
9467;SDS011;4772;52.382;9.752;2022-10-16T08:14:53;3.10;;;1.20;;
9467;SDS011;4772;52.382;9.752;2022-10-16T08:17:19;3.72;;;1.38;;
9467;SDS011;4772;52.382;9.752;2022-10-16T08:19:46;1.85;;;0.90;;
9467;SDS011;4772;52.382;9.752;2022-10-16T08:22:15;1.20;;;1.10;;
9467;SDS011;4772;52.382;9.752;2022-10-16T08:24:41;1.75;;;0.82;;
9467;SDS011;4772;52.382;9.752;2022-10-16T08:27:07;1.52;;;1.00;;
9467;SDS011;4772;52.382;9.752;2022-10-16T08:29:34;4.00;;;0.73;;
9467;SDS011;4772;52.382;9.752;2022-10-16T08:32:00;2.88;;;1.00;;
9467;SDS011;4772;52.382;9.752;2022-10-16T08:34:26;1.75;;;1.00;;
9467;SDS011;4772;52.382;9.752;2022-10-16T08:36:54;0.82;;;0.80;;
9467;SDS011;4772;52.382;9.752;2022-10-16T08:39:20;1.10;;;1.00;;
9467;SDS011;4772;52.382;9.752;2022-10-16T08:49:09;2.60;;;1.23;;
9467;SDS011;4772;52.382;9.752;2022-10-16T08:51:37;3.22;;;0.90;;
9467;SDS011;4772;52.382;9.752;2022-10-16T08:54:04;1.63;;;1.02;;
9467;SDS011;4772;52.382;9.752;2022-10-16T08:56:31;0.93;;;0.80;;
9467;SDS011;4772;52.382;9.752;2022-10-16T08:58:59;3.90;;;1.23;;
9467;SDS011;4772;52.382;9.752;2022-10-16T09:01:28;2.92;;;1.05;;
9467;SDS011;4772;52.382;9.752;2022-10-16T09:16:30;1.90;;;1.20;;
9467;SDS011;4772;52.382;9.752;2022-10-16T09:21:40;1.30;;;0.98;;
9467;SDS011;4772;52.382;9.752;2022-10-16T09:24:17;3.53;;;0.90;;
9467;SDS011;4772;52.382;9.752;2022-10-16T09:26:44;2.50;;;1.23;;
9467;SDS011;4772;52.382;9.752;2022-10-16T09:29:13;2.45;;;1.45;;
9467;SDS011;4772;52.382;9.752;2022-10-16T09:31:39;2.55;;;1.33;;
9467;SDS011;4772;52.382;9.752;2022-10-16T09:34:06;1.98;;;1.35;;
9467;SDS011;4772;52.382;9.752;2022-10-16T09:36:36;2.75;;;1.23;;
9467;SDS011;4772;52.382;9.752;2022-10-16T09:39:06;2.95;;;1.00;;
9467;SDS011;4772;52.382;9.752;2022-10-16T09:41:34;1.33;;;1.00;;
9467;SDS011;4772;52.382;9.752;2022-10-16T09:44:01;2.35;;;1.10;;
9467;SDS011;4772;52.382;9.752;2022-10-16T09:46:31;2.22;;;1.00;;
9467;SDS011;4772;52.382;9.752;2022-10-16T09:49:02;1.23;;;1.10;;
9467;SDS011;4772;52.382;9.752;2022-10-16T09:51:30;1.40;;;1.10;;
9467;SDS011;4772;52.382;9.752;2022-10-16T09:53:57;1.20;;;1.10;;
9467;SDS011;4772;52.382;9.752;2022-10-16T09:56:25;1.08;;;0.93;;
9467;SDS011;4772;52.382;9.752;2022-10-16T09:58:53;2.45;;;0.90;;
9467;SDS011;4772;52.382;9.752;2022-10-16T10:01:19;1.05;;;0.93;;
9467;SDS011;4772;52.382;9.752;2022-10-16T10:03:46;1.73;;;1.00;;
9467;SDS011;4772;52.382;9.752;2022-10-16T10:06:17;2.60;;;1.08;;
9467;SDS011;4772;52.382;9.752;2022-10-16T10:11:42;1.65;;;1.00;;
9467;SDS011;4772;52.382;9.752;2022-10-16T10:16:46;3.78;;;1.00;;
9467;SDS011;4772;52.382;9.752;2022-10-16T10:19:22;1.88;;;1.20;;
9467;SDS011;4772;52.382;9.752;2022-10-16T10:21:49;1.25;;;0.98;;
9467;SDS011;4772;52.382;9.752;2022-10-16T10:24:17;3.58;;;1.17;;
9467;SDS011;4772;52.382;9.752;2022-10-16T10:27:26;2.28;;;1.42;;
9467;SDS011;4772;52.382;9.752;2022-10-16T10:29:39;0.95;;;0.90;;
9467;SDS011;4772;52.382;9.752;2022-10-16T10:35:25;4.35;;;1.35;;
9467;SDS011;4772;52.382;9.752;2022-10-16T10:37:57;4.05;;;1.38;;
9467;SDS011;4772;52.382;9.752;2022-10-16T10:43:00;2.03;;;1.10;;
9467;SDS011;4772;52.382;9.752;2022-10-16T10:45:27;3.90;;;1.35;;
9467;SDS011;4772;52.382;9.752;2022-10-16T10:50:39;2.80;;;1.10;;
9467;SDS011;4772;52.382;9.752;2022-10-16T11:01:09;1.83;;;0.95;;
9467;SDS011;4772;52.382;9.752;2022-10-16T11:06:21;2.30;;;0.90;;
9467;SDS011;4772;52.382;9.752;2022-10-16T11:13:52;2.58;;;1.40;;
9467;SDS011;4772;52.382;9.752;2022-10-16T11:21:16;2.22;;;1.35;;
9467;SDS011;4772;52.382;9.752;2022-10-16T11:23:49;2.78;;;1.40;;
9467;SDS011;4772;52.382;9.752;2022-10-16T11:26:19;1.85;;;1.50;;
9467;SDS011;4772;52.382;9.752;2022-10-16T11:28:49;2.10;;;1.20;;
9467;SDS011;4772;52.382;9.752;2022-10-16T11:31:22;1.98;;;1.15;;
9467;SDS011;4772;52.382;9.752;2022-10-16T11:36:19;1.45;;;1.08;;
9467;SDS011;4772;52.382;9.752;2022-10-16T11:38:50;2.45;;;1.00;;
9467;SDS011;4772;52.382;9.752;2022-10-16T11:41:25;1.92;;;1.05;;
9467;SDS011;4772;52.382;9.752;2022-10-16T11:46:31;4.22;;;1.10;;
9467;SDS011;4772;52.382;9.752;2022-10-16T11:49:08;1.33;;;1.00;;
9467;SDS011;4772;52.382;9.752;2022-10-16T11:51:42;2.63;;;1.00;;
9467;SDS011;4772;52.382;9.752;2022-10-16T11:54:27;1.75;;;1.20;;
9467;SDS011;4772;52.382;9.752;2022-10-16T11:56:55;1.95;;;0.95;;
9467;SDS011;4772;52.382;9.752;2022-10-16T11:59:32;1.85;;;0.90;;
9467;SDS011;4772;52.382;9.752;2022-10-16T12:04:46;1.15;;;1.05;;
9467;SDS011;4772;52.382;9.752;2022-10-16T12:07:20;1.67;;;1.40;;
9467;SDS011;4772;52.382;9.752;2022-10-16T12:09:48;1.67;;;1.20;;
9467;SDS011;4772;52.382;9.752;2022-10-16T12:14:59;2.15;;;1.20;;
9467;SDS011;4772;52.382;9.752;2022-10-16T12:17:27;2.13;;;1.20;;
9467;SDS011;4772;52.382;9.752;2022-10-16T12:20:22;3.22;;;1.10;;
9467;SDS011;4772;52.382;9.752;2022-10-16T12:22:59;2.53;;;0.85;;
9467;SDS011;4772;52.382;9.752;2022-10-16T12:25:33;1.00;;;0.90;;
9467;SDS011;4772;52.382;9.752;2022-10-16T12:28:04;5.13;;;1.20;;
9467;SDS011;4772;52.382;9.752;2022-10-16T12:30:32;2.22;;;0.90;;
9467;SDS011;4772;52.382;9.752;2022-10-16T12:33:05;1.80;;;1.10;;
9467;SDS011;4772;52.382;9.752;2022-10-16T12:35:33;2.85;;;0.90;;
9467;SDS011;4772;52.382;9.752;2022-10-16T12:38:25;2.08;;;0.90;;
9467;SDS011;4772;52.382;9.752;2022-10-16T12:41:08;1.92;;;1.00;;
9467;SDS011;4772;52.382;9.752;2022-10-16T12:46:19;1.52;;;1.17;;
9467;SDS011;4772;52.382;9.752;2022-10-16T12:48:46;3.35;;;1.50;;
9467;SDS011;4772;52.382;9.752;2022-10-16T13:12:06;2.83;;;1.40;;
9467;SDS011;4772;52.382;9.752;2022-10-16T13:25:34;1.60;;;1.20;;
9467;SDS011;4772;52.382;9.752;2022-10-16T13:28:03;2.53;;;1.15;;
9467;SDS011;4772;52.382;9.752;2022-10-16T13:30:43;2.05;;;1.33;;
9467;SDS011;4772;52.382;9.752;2022-10-16T13:35:46;3.00;;;1.30;;
9467;SDS011;4772;52.382;9.752;2022-10-16T13:38:14;3.55;;;1.40;;
9467;SDS011;4772;52.382;9.752;2022-10-16T13:43:19;2.28;;;1.25;;
9467;SDS011;4772;52.382;9.752;2022-10-16T13:45:53;3.23;;;1.50;;
9467;SDS011;4772;52.382;9.752;2022-10-16T13:48:19;4.80;;;1.23;;
9467;SDS011;4772;52.382;9.752;2022-10-16T13:50:45;2.00;;;1.33;;
9467;SDS011;4772;52.382;9.752;2022-10-16T13:53:14;4.80;;;1.80;;
9467;SDS011;4772;52.382;9.752;2022-10-16T13:55:40;2.00;;;1.35;;
9467;SDS011;4772;52.382;9.752;2022-10-16T13:58:07;3.00;;;1.50;;
9467;SDS011;4772;52.382;9.752;2022-10-16T14:00:33;2.40;;;1.30;;
9467;SDS011;4772;52.382;9.752;2022-10-16T14:03:04;3.53;;;1.52;;
9467;SDS011;4772;52.382;9.752;2022-10-16T14:05:31;5.03;;;1.40;;
9467;SDS011;4772;52.382;9.752;2022-10-16T14:07:57;1.50;;;0.98;;
9467;SDS011;4772;52.382;9.752;2022-10-16T14:10:30;1.70;;;1.23;;
9467;SDS011;4772;52.382;9.752;2022-10-16T14:13:01;2.10;;;1.13;;
9467;SDS011;4772;52.382;9.752;2022-10-16T14:15:27;2.00;;;1.10;;
9467;SDS011;4772;52.382;9.752;2022-10-16T14:17:54;2.40;;;1.00;;
9467;SDS011;4772;52.382;9.752;2022-10-16T14:20:22;2.03;;;1.10;;
9467;SDS011;4772;52.382;9.752;2022-10-16T14:22:57;1.75;;;1.10;;
9467;SDS011;4772;52.382;9.752;2022-10-16T14:25:25;2.70;;;1.10;;
9467;SDS011;4772;52.382;9.752;2022-10-16T14:28:02;4.93;;;2.05;;
9467;SDS011;4772;52.382;9.752;2022-10-16T14:30:32;2.28;;;1.60;;
9467;SDS011;4772;52.382;9.752;2022-10-16T14:32:59;1.75;;;1.20;;
9467;SDS011;4772;52.382;9.752;2022-10-16T14:35:36;2.45;;;1.42;;
9467;SDS011;4772;52.382;9.752;2022-10-16T14:38:03;3.85;;;1.77;;
9467;SDS011;4772;52.382;9.752;2022-10-16T14:40:30;4.45;;;2.00;;
9467;SDS011;4772;52.382;9.752;2022-10-16T14:42:57;2.80;;;1.58;;
9467;SDS011;4772;52.382;9.752;2022-10-16T14:45:24;2.58;;;1.73;;
9467;SDS011;4772;52.382;9.752;2022-10-16T14:48:14;4.18;;;2.20;;
9467;SDS011;4772;52.382;9.752;2022-10-16T14:50:38;3.13;;;1.83;;
9467;SDS011;4772;52.382;9.752;2022-10-16T14:53:08;3.28;;;1.90;;
9467;SDS011;4772;52.382;9.752;2022-10-16T14:55:36;3.60;;;1.23;;
9467;SDS011;4772;52.382;9.752;2022-10-16T14:58:02;3.28;;;1.48;;
9467;SDS011;4772;52.382;9.752;2022-10-16T15:00:28;3.17;;;1.60;;
9467;SDS011;4772;52.382;9.752;2022-10-16T15:02:54;3.72;;;1.80;;
9467;SDS011;4772;52.382;9.752;2022-10-16T15:05:21;1.98;;;1.50;;
9467;SDS011;4772;52.382;9.752;2022-10-16T15:07:47;3.55;;;1.70;;
9467;SDS011;4772;52.382;9.752;2022-10-16T15:10:14;2.10;;;1.40;;
9467;SDS011;4772;52.382;9.752;2022-10-16T15:12:40;2.42;;;1.63;;
9467;SDS011;4772;52.382;9.752;2022-10-16T15:15:49;2.35;;;1.52;;
9467;SDS011;4772;52.382;9.752;2022-10-16T15:17:56;2.70;;;1.60;;
9467;SDS011;4772;52.382;9.752;2022-10-16T15:20:28;2.47;;;1.70;;
9467;SDS011;4772;52.382;9.752;2022-10-16T15:22:56;3.83;;;2.10;;
9467;SDS011;4772;52.382;9.752;2022-10-16T15:25:27;1.83;;;1.53;;
9467;SDS011;4772;52.382;9.752;2022-10-16T15:27:54;3.40;;;1.70;;
9467;SDS011;4772;52.382;9.752;2022-10-16T15:30:20;3.83;;;1.80;;
9467;SDS011;4772;52.382;9.752;2022-10-16T15:32:47;2.50;;;1.80;;
9467;SDS011;4772;52.382;9.752;2022-10-16T15:35:13;3.47;;;1.50;;
9467;SDS011;4772;52.382;9.752;2022-10-16T15:37:39;2.50;;;1.50;;
9467;SDS011;4772;52.382;9.752;2022-10-16T15:40:07;3.17;;;1.80;;
9467;SDS011;4772;52.382;9.752;2022-10-16T15:42:33;3.07;;;2.30;;
9467;SDS011;4772;52.382;9.752;2022-10-16T15:45:00;2.10;;;1.63;;
9467;SDS011;4772;52.382;9.752;2022-10-16T15:47:26;4.67;;;1.97;;
9467;SDS011;4772;52.382;9.752;2022-10-16T15:49:52;5.07;;;3.17;;
9467;SDS011;4772;52.382;9.752;2022-10-16T15:52:18;3.17;;;2.30;;
9467;SDS011;4772;52.382;9.752;2022-10-16T15:54:44;2.67;;;1.77;;
9467;SDS011;4772;52.382;9.752;2022-10-16T15:57:10;3.13;;;1.83;;
9467;SDS011;4772;52.382;9.752;2022-10-16T15:59:36;1.70;;;1.40;;
9467;SDS011;4772;52.382;9.752;2022-10-16T16:02:02;1.53;;;1.30;;
9467;SDS011;4772;52.382;9.752;2022-10-16T16:04:31;4.53;;;1.80;;
9467;SDS011;4772;52.382;9.752;2022-10-16T16:06:57;4.10;;;1.50;;
9467;SDS011;4772;52.382;9.752;2022-10-16T16:09:23;5.00;;;1.93;;
9467;SDS011;4772;52.382;9.752;2022-10-16T16:11:49;10.77;;;2.60;;
9467;SDS011;4772;52.382;9.752;2022-10-16T16:14:17;7.03;;;2.03;;
9467;SDS011;4772;52.382;9.752;2022-10-16T16:16:43;2.57;;;1.67;;
9467;SDS011;4772;52.382;9.752;2022-10-16T16:19:09;4.30;;;2.03;;
9467;SDS011;4772;52.382;9.752;2022-10-16T16:21:35;5.37;;;2.33;;
9467;SDS011;4772;52.382;9.752;2022-10-16T16:24:01;4.43;;;1.90;;
9467;SDS011;4772;52.382;9.752;2022-10-16T16:26:32;7.47;;;2.40;;
9467;SDS011;4772;52.382;9.752;2022-10-16T16:29:01;7.70;;;2.60;;
9467;SDS011;4772;52.382;9.752;2022-10-16T16:31:28;11.10;;;2.83;;
9467;SDS011;4772;52.382;9.752;2022-10-16T16:33:54;7.40;;;2.70;;
9467;SDS011;4772;52.382;9.752;2022-10-16T16:36:21;9.33;;;2.87;;
9467;SDS011;4772;52.382;9.752;2022-10-16T16:38:47;3.30;;;2.00;;
9467;SDS011;4772;52.382;9.752;2022-10-16T16:41:14;4.00;;;2.23;;
9467;SDS011;4772;52.382;9.752;2022-10-16T16:43:41;5.83;;;2.27;;
9467;SDS011;4772;52.382;9.752;2022-10-16T16:46:07;6.33;;;2.20;;
9467;SDS011;4772;52.382;9.752;2022-10-16T16:48:34;4.10;;;1.77;;
9467;SDS011;4772;52.382;9.752;2022-10-16T16:51:07;5.07;;;2.20;;
9467;SDS011;4772;52.382;9.752;2022-10-16T16:53:36;7.43;;;2.40;;
9467;SDS011;4772;52.382;9.752;2022-10-16T16:56:03;6.17;;;2.13;;
9467;SDS011;4772;52.382;9.752;2022-10-16T16:58:29;3.03;;;1.80;;
9467;SDS011;4772;52.382;9.752;2022-10-16T17:00:55;6.47;;;2.25;;
9467;SDS011;4772;52.382;9.752;2022-10-16T17:03:26;6.97;;;2.20;;
9467;SDS011;4772;52.382;9.752;2022-10-16T17:05:56;10.03;;;2.20;;
9467;SDS011;4772;52.382;9.752;2022-10-16T17:08:23;6.97;;;2.27;;
9467;SDS011;4772;52.382;9.752;2022-10-16T17:10:49;6.30;;;2.63;;
9467;SDS011;4772;52.382;9.752;2022-10-16T17:13:18;5.70;;;2.00;;
9467;SDS011;4772;52.382;9.752;2022-10-16T17:15:48;6.73;;;2.73;;
9467;SDS011;4772;52.382;9.752;2022-10-16T17:18:16;7.40;;;2.70;;
9467;SDS011;4772;52.382;9.752;2022-10-16T17:20:42;8.97;;;2.43;;
9467;SDS011;4772;52.382;9.752;2022-10-16T17:23:11;7.20;;;2.60;;